Marinopolis, Brazil
Current Conditions -  °F | °C
As of 6:00 PM on Monday 24 Nov 2014 (Local Time) from SBSR Reporting Station
Rain Showers Rain Showers  
Wind Chill: 81°   Ceiling: 4500
Heat Index: 83°   Visibility: 6mi
Dew Point: 68°   Wind: 8mph
Humidity: 65%   Direction: 360°N
Pressure: 29.88"   Gusts: NA
Location:  20.44°S, 50.82°W
Report Text: SBSR 242000Z 36007KT 9999 VCSH SCT025 BKN045 OVC080 27/20 Q1012
Loading
Personal Weather Stations






























Interactive Weather Map New forecast layout! Learn more

10-Day Weather Forecast

Advertisements
Track Severe Weather on mobile